Aérodrome :
LOGIN :

S'inscrire | Disclaimer

   EN    FR    IT 

 










Légende :    VFR   VFR Marginal   IFR   IFR Intensif   IFR Très Intensif
Visi : 
Plafond : 
>= 8 km
>= 3000ft
5 à 8 km
1000 à 3000 ft
1500m à 5 km
500 à 1000 ft
800 à 1500m
200 à 500 ft
< 800m
< 200 ft
Symboles :   Orages  Brouillard  Fortes neiges  Fortes précipitations  Vent > 20 kt
SIGMETs :   Divers  Orages  Givrage  Turbulence  Onde Orograph.  Cendres Volcan.






- Altitude de l'aérodrome : 1989 ft
- Code IATA : KLV


LKKV - Karlovy Vary

DERNIER METAR :
  • 180900Z 27007KT 9999 SCT028 02/00 Q1023

METARs EXPIRÉS :
  • 180830Z 25005KT 9999 SCT027 02/00 Q1023
  • 180800Z 25006KT 220V290 9999 FEW015 SCT027 02/00 Q1023
  • 180730Z 25007KT 210V280 9999 FEW013 SCT025 02/01 Q1023
  • 180700Z 24004KT 210V280 9999 SCT015 BKN025 03/02 Q1023
  • 180630Z 24004KT 210V280 9999 SCT015 BKN028 03/02 Q1022

TAF AMD TAF LKKV
Valide du 18 à 07h jusqu'au 19 à 12h UTC


180635Z 1807/1912 25004KT 9999 BKN020
TEMPO 1807/1812 2500 -SNRA BR OVC008
PROB30
TEMPO 1807/1809 1200 -SN OVC003
TEMPO 1812/1818 5000 BR SCT005 BKN012
TEMPO 1820/1906 2500 BR BKN005
TEMPO 1906/1912 1500 SN OVC003



MET'MAP, la Météo Aéronautique d'un coup d'oeil ! - Copyright ORBIFLY Décembre 2007 - Disclaimer

ORBIFLY MET'MAP TEAM :

Programmation & Développement : Alexandra Zaïnal
Sur une idée originale de : Baudouin d'Aumeries
Assistance à la programmation : Marc-Olivier Méhu
Soutien technique & logistique : Manuel Goepfert

Contact : metmap@orbifly.com




SOURCES & CREDITS :

   NOAA